Time;durP1;ratioP1;P1;durP2;ratioP2;P2;SDS_P1;SDS_P2;PMS_P1;PMS_P2;Temp;Humidity;BMP_temperature;BMP_pressure;BME280_temperature;BME280_humidity;BME280_pressure;Samples;Min_cycle;Max_cycle;Signal;HPM_P1;HPM_P2
2022/05/31 00:02:01;;;;;;;9.00;5.00;;;;;;;;;;5055679;28;20103;-27
2022/05/31 00:04:27;;;;;;;8.82;3.10;;;;;;;;;;5054343;28;20045;-27
2022/05/31 00:06:53;;;;;;;6.88;3.88;;;;;;;;;;5053838;28;20045;-27
2022/05/31 00:09:20;;;;;;;5.32;4.13;;;;;;;;;;5055724;28;20383;-27
2022/05/31 00:11:47;;;;;;;6.38;4.63;;;;;;;;;;5055542;28;20075;-27
2022/05/31 00:14:14;;;;;;;7.35;5.10;;;;;;;;;;5055541;28;20076;-27
2022/05/31 00:16:40;;;;;;;5.47;4.45;;;;;;;;;;5054943;28;20057;-27
2022/05/31 00:19:07;;;;;;;7.13;5.25;;;;;;;;;;5054790;28;20041;-27
2022/05/31 00:21:44;;;;;;;7.47;5.50;;;;;;;;;;5055330;28;20398;-26
2022/05/31 00:24:11;;;;;;;8.60;5.85;;;;;;;;;;5055912;28;20049;-27
2022/05/31 00:26:38;;;;;;;11.63;8.10;;;;;;;;;;5055117;28;20458;-27
2022/05/31 00:29:05;;;;;;;17.58;9.40;;;;;;;;;;5053550;28;20048;-27
2022/05/31 00:31:31;;;;;;;16.85;10.55;;;;;;;;;;5055140;28;20041;-27
2022/05/31 00:33:57;;;;;;;17.38;11.70;;;;;;;;;;5055157;28;20152;-27
2022/05/31 00:36:23;;;;;;;9.20;6.53;;;;;;;;;;5055938;28;20041;-27
2022/05/31 00:38:49;;;;;;;12.57;6.22;;;;;;;;;;5055612;28;20066;-27
2022/05/31 00:41:23;;;;;;;5.70;3.65;;;;;;;;;;5054019;28;20496;-27
2022/05/31 00:43:49;;;;;;;;;;;;;;;;;;5055406;28;20055;-26
2022/05/31 00:46:15;;;;;;;10.75;6.93;;;;;;;;;;5054977;28;19920;-27
2022/05/31 00:48:55;;;;;;;16.45;10.55;;;;;;;;;;5055039;28;20377;-27
2022/05/31 00:51:23;;;;;;;19.08;12.07;;;;;;;;;;5054869;28;20045;-27
2022/05/31 00:53:51;;;;;;;15.27;10.07;;;;;;;;;;5054741;28;20049;-27
2022/05/31 00:56:19;;;;;;;19.25;12.38;;;;;;;;;;5054693;28;20045;-27
2022/05/31 00:59:02;;;;;;;20.02;12.90;;;;;;;;;;5053078;28;20041;-27
2022/05/31 01:01:30;;;;;;;29.92;16.63;;;;;;;;;;5053453;28;20044;-27
2022/05/31 01:03:56;;;;;;;23.40;15.50;;;;;;;;;;5054659;28;20048;-27
2022/05/31 01:06:22;;;;;;;24.10;18.13;;;;;;;;;;5053546;28;20087;-27
2022/05/31 01:08:49;;;;;;;25.27;17.38;;;;;;;;;;5053088;28;20109;-27
2022/05/31 01:11:18;;;;;;;26.13;16.88;;;;;;;;;;5053824;28;20055;-28
2022/05/31 01:13:44;;;;;;;28.88;19.55;;;;;;;;;;5054335;28;20084;-27
2022/05/31 01:16:12;;;;;;;24.50;17.70;;;;;;;;;;5086928;28;20051;-27
2022/05/31 01:18:38;;;;;;;27.50;19.15;;;;;;;;;;5054313;28;20394;-27
2022/05/31 01:21:05;;;;;;;24.45;17.67;;;;;;;;;;5052596;28;20063;-28
2022/05/31 01:23:35;;;;;;;18.80;15.40;;;;;;;;;;5053207;28;20512;-27
2022/05/31 01:26:04;;;;;;;24.05;15.68;;;;;;;;;;5053642;28;20051;-27
2022/05/31 01:28:42;;;;;;;20.05;14.93;;;;;;;;;;5053284;28;20111;-27
2022/05/31 01:31:11;;;;;;;22.50;14.65;;;;;;;;;;5054413;28;20055;-27
2022/05/31 01:33:44;;;;;;;20.48;14.23;;;;;;;;;;5054540;28;20044;-27
2022/05/31 01:36:15;;;;;;;21.77;15.75;;;;;;;;;;5054016;28;20139;-27
2022/05/31 01:39:17;;;;;;;22.13;15.05;;;;;;;;;;5052610;28;20056;-27
2022/05/31 01:41:51;;;;;;;23.35;15.88;;;;;;;;;;5011417;28;20057;-27
2022/05/31 01:44:18;;;;;;;21.80;14.80;;;;;;;;;;5047759;28;20096;-27
2022/05/31 01:46:45;;;;;;;23.55;14.30;;;;;;;;;;5053815;28;20487;-28
2022/05/31 01:49:13;;;;;;;20.45;13.82;;;;;;;;;;5053976;28;20037;-27
2022/05/31 01:51:40;;;;;;;19.00;14.88;;;;;;;;;;5072885;28;20055;-27
2022/05/31 01:54:07;;;;;;;21.33;15.43;;;;;;;;;;5055624;28;20045;-27
2022/05/31 01:56:35;;;;;;;21.27;14.20;;;;;;;;;;5054510;28;20113;-27
2022/05/31 01:59:03;;;;;;;20.08;14.15;;;;;;;;;;5054201;28;20049;-27
2022/05/31 02:01:30;;;;;;;20.15;14.10;;;;;;;;;;5054196;28;20123;-28
2022/05/31 02:03:56;;;;;;;19.40;13.65;;;;;;;;;;5052930;28;20506;-27
2022/05/31 02:06:23;;;;;;;20.60;13.40;;;;;;;;;;5053579;28;20135;-27
2022/05/31 02:08:49;;;;;;;19.58;13.18;;;;;;;;;;5053461;28;20486;-28
2022/05/31 02:11:15;;;;;;;17.73;12.90;;;;;;;;;;5053370;28;20060;-27
2022/05/31 02:13:41;;;;;;;18.42;12.57;;;;;;;;;;5053661;28;20512;-27
2022/05/31 02:16:08;;;;;;;17.80;12.88;;;;;;;;;;5052570;28;20053;-28
2022/05/31 02:21:18;;;;;;;15.25;11.60;;;;;;;;;;5052829;28;20056;-27
2022/05/31 02:23:44;;;;;;;16.77;11.77;;;;;;;;;;5054014;28;20045;-28
2022/05/31 02:26:11;;;;;;;17.58;12.45;;;;;;;;;;5053398;28;20135;-28
2022/05/31 02:28:37;;;;;;;16.52;11.45;;;;;;;;;;5053325;28;20128;-28
2022/05/31 02:31:03;;;;;;;15.70;11.82;;;;;;;;;;5054922;28;20103;-28
2022/05/31 02:33:29;;;;;;;16.90;11.75;;;;;;;;;;5057945;28;20048;-27
2022/05/31 02:35:55;;;;;;;17.30;11.02;;;;;;;;;;5057647;28;20049;-27
2022/05/31 02:38:21;;;;;;;15.90;10.95;;;;;;;;;;5058115;28;20041;-27
2022/05/31 02:40:47;;;;;;;13.25;10.65;;;;;;;;;;5057237;28;20053;-27
2022/05/31 02:43:14;;;;;;;15.30;11.35;;;;;;;;;;5058001;28;20355;-27
2022/05/31 02:45:40;;;;;;;15.88;11.35;;;;;;;;;;5057610;28;20048;-27
2022/05/31 02:48:06;;;;;;;15.80;11.70;;;;;;;;;;5056492;28;20047;-27
2022/05/31 02:50:32;;;;;;;15.63;10.73;;;;;;;;;;5057081;28;20433;-27
2022/05/31 02:52:58;;;;;;;13.82;9.77;;;;;;;;;;5057043;28;20140;-27
2022/05/31 02:55:24;;;;;;;13.20;10.13;;;;;;;;;;5055435;28;20040;-27
2022/05/31 02:57:50;;;;;;;14.75;10.40;;;;;;;;;;5076870;28;20047;-27
2022/05/31 03:00:17;;;;;;;14.00;10.52;;;;;;;;;;5077728;28;20376;-27
2022/05/31 03:02:43;;;;;;;19.08;10.63;;;;;;;;;;5075813;28;20413;-28
2022/05/31 03:05:09;;;;;;;14.25;10.73;;;;;;;;;;5077361;28;20089;-27
2022/05/31 03:07:35;;;;;;;11.93;9.98;;;;;;;;;;5060876;28;20072;-28
2022/05/31 03:10:01;;;;;;;15.40;10.93;;;;;;;;;;5055623;28;20060;-27
2022/05/31 03:12:28;;;;;;;14.05;10.85;;;;;;;;;;5057236;28;20132;-27
2022/05/31 03:14:54;;;;;;;16.13;11.68;;;;;;;;;;5055462;28;20152;-27
2022/05/31 03:17:28;;;;;;;12.82;10.38;;;;;;;;;;5055889;28;20193;-27
2022/05/31 03:20:02;;;;;;;13.50;10.15;;;;;;;;;;5056569;28;20052;-27
2022/05/31 03:22:28;;;;;;;;;;;;;;;;;;5056931;28;20140;-27
2022/05/31 03:25:00;;;;;;;16.48;11.13;;;;;;;;;;5056431;28;20015;-28
2022/05/31 03:27:26;;;;;;;18.05;10.77;;;;;;;;;;5055376;28;20045;-27
2022/05/31 03:29:53;;;;;;;14.48;11.15;;;;;;;;;;5056397;28;20092;-27
2022/05/31 03:32:19;;;;;;;18.02;11.27;;;;;;;;;;5056515;28;20387;-27
2022/05/31 03:34:46;;;;;;;11.60;9.98;;;;;;;;;;5055130;28;20449;-27
2022/05/31 03:37:12;;;;;;;14.25;10.88;;;;;;;;;;5056251;28;20442;-28
2022/05/31 03:39:38;;;;;;;12.45;9.60;;;;;;;;;;5059394;28;20120;-28
2022/05/31 03:42:06;;;;;;;13.98;9.45;;;;;;;;;;5055552;28;20091;-27
2022/05/31 03:44:32;;;;;;;10.73;8.98;;;;;;;;;;5056053;28;20049;-28
2022/05/31 03:46:58;;;;;;;14.40;8.85;;;;;;;;;;5056007;28;20501;-27
2022/05/31 03:49:24;;;;;;;12.48;10.05;;;;;;;;;;5055864;28;20175;-27
2022/05/31 03:51:50;;;;;;;12.80;8.45;;;;;;;;;;5055361;28;20049;-28
2022/05/31 03:54:16;;;;;;;12.35;8.15;;;;;;;;;;5056765;28;20041;-27
2022/05/31 03:56:43;;;;;;;8.45;7.53;;;;;;;;;;5055884;28;20132;-28
2022/05/31 03:59:09;;;;;;;9.23;7.65;;;;;;;;;;5055859;28;20090;-27
2022/05/31 04:01:35;;;;;;;11.52;8.05;;;;;;;;;;5055750;28;20383;-27
2022/05/31 04:04:03;;;;;;;10.80;7.25;;;;;;;;;;5055593;28;20048;-27
2022/05/31 04:06:29;;;;;;;9.65;7.15;;;;;;;;;;5055684;28;20049;-27
2022/05/31 04:08:55;;;;;;;7.68;6.65;;;;;;;;;;5054691;28;20056;-27
2022/05/31 04:11:22;;;;;;;9.63;6.65;;;;;;;;;;5066633;28;20045;-27
2022/05/31 04:13:48;;;;;;;8.30;6.30;;;;;;;;;;5056105;28;20122;-27
2022/05/31 04:16:16;;;;;;;7.32;6.57;;;;;;;;;;5070048;28;20123;-29
2022/05/31 04:18:42;;;;;;;7.53;6.70;;;;;;;;;;5076016;28;20083;-28
2022/05/31 04:21:10;;;;;;;9.93;6.57;;;;;;;;;;5074511;28;20067;-27
2022/05/31 04:26:21;;;;;;;7.82;5.57;;;;;;;;;;5074933;28;20048;-28
2022/05/31 04:28:47;;;;;;;7.07;5.68;;;;;;;;;;5057291;28;20045;-27
2022/05/31 04:31:13;;;;;;;7.38;5.18;;;;;;;;;;5055159;28;20048;-27
2022/05/31 04:33:40;;;;;;;7.57;5.57;;;;;;;;;;5060810;28;20397;-28
2022/05/31 04:36:07;;;;;;;9.02;5.30;;;;;;;;;;5075094;28;20044;-27
2022/05/31 04:38:34;;;;;;;5.63;4.65;;;;;;;;;;5065371;28;20045;-28
2022/05/31 04:41:00;;;;;;;5.90;4.85;;;;;;;;;;5037454;28;20052;-29
2022/05/31 04:43:26;;;;;;;5.45;4.72;;;;;;;;;;5054028;28;20141;-28
2022/05/31 04:45:52;;;;;;;5.57;4.95;;;;;;;;;;5054925;28;20056;-28
2022/05/31 04:48:18;;;;;;;7.97;4.30;;;;;;;;;;5053788;28;20049;-28
2022/05/31 04:50:44;;;;;;;5.70;4.22;;;;;;;;;;5054516;28;20510;-27
2022/05/31 04:53:10;;;;;;;8.02;5.40;;;;;;;;;;5054806;28;20056;-27
2022/05/31 04:55:36;;;;;;;6.32;4.28;;;;;;;;;;5053272;28;20051;-27
2022/05/31 04:58:03;;;;;;;7.15;4.68;;;;;;;;;;5054656;28;20044;-28
2022/05/31 05:00:30;;;;;;;8.98;5.53;;;;;;;;;;5054698;28;20095;-28
2022/05/31 05:02:56;;;;;;;6.63;4.85;;;;;;;;;;5037374;28;20084;-27
2022/05/31 05:05:22;;;;;;;12.15;5.10;;;;;;;;;;5036852;28;20053;-27
2022/05/31 05:07:48;;;;;;;6.82;5.05;;;;;;;;;;5055555;28;20044;-27
2022/05/31 05:10:15;;;;;;;5.78;5.03;;;;;;;;;;5055803;28;20128;-28
2022/05/31 05:12:41;;;;;;;5.93;5.28;;;;;;;;;;5055787;28;20059;-28
2022/05/31 05:15:07;;;;;;;9.65;5.00;;;;;;;;;;5057093;28;20055;-27
2022/05/31 05:17:33;;;;;;;6.90;4.53;;;;;;;;;;5054240;28;20049;-27
2022/05/31 05:19:59;;;;;;;6.25;5.07;;;;;;;;;;5053307;28;20107;-27
2022/05/31 05:22:28;;;;;;;6.97;4.60;;;;;;;;;;5070896;28;20044;-28
2022/05/31 05:24:54;;;;;;;6.15;5.03;;;;;;;;;;5072917;28;20060;-27
2022/05/31 05:27:20;;;;;;;5.60;4.93;;;;;;;;;;5072936;28;20060;-27
2022/05/31 05:32:30;;;;;;;7.93;4.70;;;;;;;;;;5061243;28;20057;-28
2022/05/31 05:34:56;;;;;;;7.15;4.55;;;;;;;;;;5038464;28;20123;-28
2022/05/31 05:37:23;;;;;;;8.75;4.72;;;;;;;;;;5061357;28;20057;-27
2022/05/31 05:39:49;;;;;;;8.00;4.53;;;;;;;;;;5054187;28;20045;-27
2022/05/31 05:42:15;;;;;;;8.18;4.93;;;;;;;;;;5065319;28;20041;-27
2022/05/31 05:44:42;;;;;;;8.02;5.13;;;;;;;;;;5066187;28;20402;-28
2022/05/31 05:47:09;;;;;;;7.53;4.80;;;;;;;;;;5059975;28;20068;-28
2022/05/31 05:49:36;;;;;;;6.45;4.18;;;;;;;;;;5067806;28;20055;-28
2022/05/31 05:52:03;;;;;;;5.25;4.75;;;;;;;;;;5054711;28;20491;-27
2022/05/31 05:54:29;;;;;;;6.25;4.93;;;;;;;;;;5054397;28;20103;-27
2022/05/31 05:56:55;;;;;;;5.47;4.55;;;;;;;;;;5054393;28;20053;-27
2022/05/31 05:59:21;;;;;;;7.70;5.30;;;;;;;;;;5052264;28;20053;-27
2022/05/31 06:01:50;;;;;;;7.80;5.22;;;;;;;;;;5062649;28;20490;-27
2022/05/31 06:04:25;;;;;;;5.00;4.40;;;;;;;;;;5054767;28;20091;-28
2022/05/31 06:06:58;;;;;;;8.25;4.80;;;;;;;;;;5065055;28;20036;-28
2022/05/31 06:09:24;;;;;;;8.93;4.88;;;;;;;;;;5055224;28;20060;-28
2022/05/31 06:11:54;;;;;;;6.88;3.85;;;;;;;;;;5052559;28;20092;-27
2022/05/31 06:14:22;;;;;;;7.13;4.57;;;;;;;;;;5053692;28;20123;-27
2022/05/31 06:16:52;;;;;;;8.75;4.70;;;;;;;;;;5053513;28;20131;-27
2022/05/31 06:19:19;;;;;;;6.13;4.15;;;;;;;;;;5053471;28;20041;-27
2022/05/31 06:21:46;;;;;;;5.82;4.05;;;;;;;;;;5053688;28;20554;-27
2022/05/31 06:24:12;;;;;;;5.80;3.92;;;;;;;;;;5053951;28;20390;-27
2022/05/31 06:26:39;;;;;;;4.72;3.85;;;;;;;;;;5053463;28;20049;-27
2022/05/31 06:29:05;;;;;;;8.88;4.70;;;;;;;;;;5052204;28;20490;-27
2022/05/31 06:31:31;;;;;;;7.55;4.57;;;;;;;;;;5052786;28;20138;-28
2022/05/31 06:33:57;;;;;;;7.13;4.60;;;;;;;;;;5053361;28;20056;-27
2022/05/31 06:36:23;;;;;;;10.52;4.75;;;;;;;;;;5053857;28;20055;-27
2022/05/31 06:38:49;;;;;;;8.60;4.55;;;;;;;;;;5054120;28;20371;-27
2022/05/31 06:41:15;;;;;;;8.40;4.85;;;;;;;;;;5053157;28;20370;-28
2022/05/31 06:43:41;;;;;;;7.72;3.90;;;;;;;;;;5054091;28;20052;-27
2022/05/31 06:46:09;;;;;;;7.93;3.63;;;;;;;;;;5053105;28;20088;-27
2022/05/31 06:48:35;;;;;;;8.18;4.50;;;;;;;;;;5053677;28;20041;-27
2022/05/31 06:51:08;;;;;;;6.13;3.78;;;;;;;;;;5051986;28;20098;-27
2022/05/31 06:59:04;;;;;;;6.30;4.47;;;;;;;;;;5052433;28;20053;-28
2022/05/31 07:01:37;;;;;;;5.85;3.40;;;;;;;;;;5053607;28;20140;-27
2022/05/31 07:04:03;;;;;;;5.75;3.25;;;;;;;;;;5052380;28;20055;-27
2022/05/31 07:06:31;;;;;;;5.75;3.35;;;;;;;;;;5052727;28;20490;-27
2022/05/31 07:08:57;;;;;;;10.25;4.57;;;;;;;;;;5052649;28;20061;-27
2022/05/31 07:11:23;;;;;;;5.78;3.85;;;;;;;;;;5052113;28;20475;-27
2022/05/31 07:13:49;;;;;;;7.38;3.10;;;;;;;;;;5053016;28;20052;-27
2022/05/31 07:16:16;;;;;;;5.93;3.63;;;;;;;;;;5052952;28;20095;-27
2022/05/31 07:18:42;;;;;;;4.90;3.13;;;;;;;;;;5054161;28;20049;-27
2022/05/31 07:21:08;;;;;;;6.22;3.30;;;;;;;;;;5056522;28;20041;-27
2022/05/31 07:23:34;;;;;;;3.85;2.88;;;;;;;;;;5055512;28;20045;-27
2022/05/31 07:26:02;;;;;;;5.10;3.30;;;;;;;;;;5056487;28;20044;-27
2022/05/31 07:28:28;;;;;;;6.63;2.88;;;;;;;;;;5056348;28;20044;-27
2022/05/31 07:30:55;;;;;;;4.15;2.80;;;;;;;;;;5056126;28;20132;-27
2022/05/31 07:33:21;;;;;;;4.75;2.80;;;;;;;;;;5056851;28;20053;-27
2022/05/31 07:35:49;;;;;;;5.22;3.25;;;;;;;;;;5055978;28;20522;-28
2022/05/31 07:38:16;;;;;;;4.55;2.90;;;;;;;;;;5055540;28;20057;-27
2022/05/31 07:40:42;;;;;;;6.38;3.35;;;;;;;;;;5056175;28;20056;-27
2022/05/31 07:43:08;;;;;;;4.57;3.03;;;;;;;;;;5055187;28;20053;-27
2022/05/31 07:45:34;;;;;;;3.63;2.90;;;;;;;;;;5056087;28;20045;-28
2022/05/31 07:48:00;;;;;;;6.43;3.70;;;;;;;;;;5055314;28;20045;-27
2022/05/31 07:50:26;;;;;;;4.35;2.78;;;;;;;;;;5056807;28;20045;-27
2022/05/31 07:52:52;;;;;;;4.25;2.67;;;;;;;;;;5055897;28;20048;-27
2022/05/31 07:55:18;;;;;;;4.13;2.88;;;;;;;;;;5054730;28;20090;-27
2022/05/31 08:00:29;;;;;;;6.07;3.38;;;;;;;;;;5055895;28;20096;-27
2022/05/31 08:02:55;;;;;;;5.68;2.72;;;;;;;;;;5055427;28;20084;-27
2022/05/31 08:05:21;;;;;;;5.68;2.85;;;;;;;;;;5055468;28;20502;-27
2022/05/31 08:07:49;;;;;;;4.18;2.67;;;;;;;;;;5054975;28;20391;-27
2022/05/31 08:10:17;;;;;;;5.28;2.28;;;;;;;;;;5055591;28;20064;-27
2022/05/31 08:12:43;;;;;;;6.70;2.42;;;;;;;;;;5055599;28;20052;-27
2022/05/31 08:15:10;;;;;;;5.05;2.67;;;;;;;;;;5055545;28;20041;-27
2022/05/31 08:17:36;;;;;;;5.60;3.42;;;;;;;;;;5055527;28;20049;-27
2022/05/31 08:20:04;;;;;;;3.80;2.50;;;;;;;;;;5055443;28;20049;-27
2022/05/31 08:22:30;;;;;;;5.32;1.98;;;;;;;;;;5055397;28;20092;-27
2022/05/31 08:24:56;;;;;;;3.35;2.13;;;;;;;;;;5055390;28;20080;-27
2022/05/31 08:27:23;;;;;;;4.72;2.88;;;;;;;;;;5054206;28;20049;-27
2022/05/31 08:29:49;;;;;;;5.40;2.70;;;;;;;;;;5055268;28;20049;-27
2022/05/31 08:32:15;;;;;;;4.53;2.53;;;;;;;;;;5055257;28;20083;-27
2022/05/31 08:34:41;;;;;;;4.95;2.40;;;;;;;;;;5055699;28;20044;-27
2022/05/31 08:37:07;;;;;;;5.05;2.67;;;;;;;;;;5055108;28;20059;-27
2022/05/31 08:39:33;;;;;;;3.70;2.15;;;;;;;;;;5055143;28;20399;-26
2022/05/31 08:42:06;;;;;;;5.13;3.08;;;;;;;;;;5055582;28;20390;-26
2022/05/31 08:44:32;;;;;;;5.65;2.97;;;;;;;;;;5055001;28;20045;-27
2022/05/31 08:47:00;;;;;;;4.50;2.50;;;;;;;;;;5054933;28;20052;-27
2022/05/31 08:52:36;;;;;;;4.93;2.53;;;;;;;;;;5054915;28;20064;-27
2022/05/31 08:57:53;;;;;;;7.38;2.50;;;;;;;;;;5054105;28;20067;-26
2022/05/31 09:00:20;;;;;;;6.25;2.83;;;;;;;;;;5054684;28;20076;-26
2022/05/31 09:02:56;;;;;;;5.93;3.03;;;;;;;;;;5055058;28;20076;-27
2022/05/31 09:05:32;;;;;;;5.43;2.05;;;;;;;;;;5054522;28;20080;-27
2022/05/31 09:08:07;;;;;;;8.68;2.58;;;;;;;;;;5054459;28;20471;-27
2022/05/31 09:10:41;;;;;;;7.85;2.35;;;;;;;;;;5054984;28;20061;-27
2022/05/31 09:13:15;;;;;;;3.97;2.00;;;;;;;;;;5054079;28;20051;-26
2022/05/31 09:15:59;;;;;;;3.22;2.60;;;;;;;;;;5055015;28;20135;-27
2022/05/31 09:18:42;;;;;;;3.78;2.08;;;;;;;;;;5054595;28;20116;-27
2022/05/31 09:21:16;;;;;;;4.88;2.22;;;;;;;;;;5054821;28;20110;-27
2022/05/31 09:23:45;;;;;;;4.80;2.45;;;;;;;;;;5054276;28;20479;-27
2022/05/31 09:26:23;;;;;;;3.42;1.67;;;;;;;;;;5054188;28;20048;-27
2022/05/31 09:28:52;;;;;;;5.80;2.03;;;;;;;;;;5052989;28;20045;-27
2022/05/31 09:31:38;;;;;;;4.13;1.35;;;;;;;;;;5054914;28;20048;-27
2022/05/31 09:34:16;;;;;;;4.97;2.03;;;;;;;;;;5053634;28;20130;-28
2022/05/31 09:36:48;;;;;;;2.50;1.67;;;;;;;;;;5054000;28;20045;-27
2022/05/31 09:39:23;;;;;;;2.50;1.40;;;;;;;;;;5054035;28;20506;-27
2022/05/31 09:41:52;;;;;;;3.35;1.70;;;;;;;;;;5054197;28;20049;-27
2022/05/31 09:44:19;;;;;;;4.72;1.55;;;;;;;;;;5054161;28;20506;-27
2022/05/31 09:47:05;;;;;;;6.45;2.20;;;;;;;;;;5053823;28;20079;-26
2022/05/31 09:49:36;;;;;;;12.13;3.13;;;;;;;;;;5054052;28;20049;-27
2022/05/31 09:52:04;;;;;;;4.07;1.88;;;;;;;;;;5054336;28;20049;-27
2022/05/31 09:57:21;;;;;;;5.53;2.30;;;;;;;;;;5053838;28;20132;-27
2022/05/31 09:59:49;;;;;;;7.70;2.67;;;;;;;;;;5053747;28;20489;-26
2022/05/31 10:02:21;;;;;;;6.25;2.10;;;;;;;;;;5053709;28;20060;-28
2022/05/31 10:04:48;;;;;;;4.28;2.00;;;;;;;;;;5053588;28;20045;-26
2022/05/31 10:07:30;;;;;;;4.53;2.55;;;;;;;;;;5053600;28;20103;-27
2022/05/31 10:10:01;;;;;;;4.30;2.27;;;;;;;;;;5052413;28;20065;-26
2022/05/31 10:12:30;;;;;;;4.13;2.20;;;;;;;;;;5052630;28;20514;-26
2022/05/31 10:14:56;;;;;;;6.32;2.75;;;;;;;;;;5052353;28;20059;-27
2022/05/31 10:17:32;;;;;;;4.65;2.72;;;;;;;;;;5053488;28;20049;-26
2022/05/31 10:20:07;;;;;;;4.90;3.08;;;;;;;;;;5054296;28;20049;-26
2022/05/31 10:22:35;;;;;;;4.35;2.75;;;;;;;;;;5053438;28;20132;-26
2022/05/31 10:25:18;;;;;;;6.15;3.17;;;;;;;;;;5053977;28;20057;-27
2022/05/31 10:27:44;;;;;;;6.53;3.58;;;;;;;;;;5053652;28;20115;-27
2022/05/31 10:30:16;;;;;;;4.63;3.40;;;;;;;;;;5053957;28;20057;-26
2022/05/31 10:32:46;;;;;;;5.83;3.03;;;;;;;;;;5053404;28;20049;-26
2022/05/31 10:35:15;;;;;;;7.45;3.13;;;;;;;;;;5052583;28;20294;-26
2022/05/31 10:37:50;;;;;;;8.38;3.70;;;;;;;;;;5053297;28;20422;-26
2022/05/31 10:40:18;;;;;;;7.22;4.10;;;;;;;;;;5053564;28;20118;-28
2022/05/31 10:42:45;;;;;;;8.10;4.85;;;;;;;;;;5053787;28;20092;-28
2022/05/31 10:45:19;;;;;;;4.90;4.38;;;;;;;;;;5051248;28;20053;-29
2022/05/31 10:47:46;;;;;;;6.80;5.03;;;;;;;;;;5063409;28;20057;-28
2022/05/31 10:50:13;;;;;;;6.85;3.80;;;;;;;;;;5053201;28;20081;-28
2022/05/31 10:52:42;;;;;;;5.15;3.50;;;;;;;;;;5067393;28;20056;-28
2022/05/31 10:55:23;;;;;;;10.13;8.38;;;;;;;;;;5077616;28;20052;-28
2022/05/31 10:57:50;;;;;;;10.50;5.80;;;;;;;;;;5077004;28;20040;-28
2022/05/31 11:00:19;;;;;;;6.55;4.43;;;;;;;;;;5077387;28;20056;-28
2022/05/31 11:02:45;;;;;;;7.82;3.80;;;;;;;;;;5076812;28;20051;-28
2022/05/31 11:05:12;;;;;;;6.57;3.35;;;;;;;;;;5076844;28;20056;-28
2022/05/31 11:07:38;;;;;;;6.82;3.45;;;;;;;;;;5076840;28;20048;-29
2022/05/31 11:13:07;;;;;;;6.38;3.90;;;;;;;;;;5067399;28;20055;-28
2022/05/31 11:15:36;;;;;;;7.47;3.90;;;;;;;;;;5060817;28;20041;-26
2022/05/31 11:18:11;;;;;;;6.68;3.92;;;;;;;;;;5075753;28;20132;-26
2022/05/31 11:21:03;;;;;;;8.23;3.70;;;;;;;;;;5076259;28;20541;-26
2022/05/31 11:23:39;;;;;;;6.95;3.60;;;;;;;;;;5076888;28;20043;-26
2022/05/31 11:26:25;;;;;;;7.43;3.72;;;;;;;;;;5071750;28;20487;-26
2022/05/31 11:28:57;;;;;;;5.40;3.45;;;;;;;;;;5055928;28;20092;-28
2022/05/31 11:31:26;;;;;;;5.57;3.33;;;;;;;;;;5056406;28;20045;-26
2022/05/31 11:34:19;;;;;;;6.47;3.22;;;;;;;;;;5056378;28;20049;-26
2022/05/31 11:37:05;;;;;;;8.43;3.43;;;;;;;;;;5058662;28;20052;-27
2022/05/31 11:39:49;;;;;;;5.88;2.85;;;;;;;;;;5076304;28;20040;-26
2022/05/31 11:42:24;;;;;;;10.00;2.78;;;;;;;;;;5076248;28;20189;-26
2022/05/31 11:45:02;;;;;;;6.90;2.80;;;;;;;;;;5070179;28;20048;-26
2022/05/31 11:47:51;;;;;;;6.72;3.72;;;;;;;;;;5062393;28;20187;-27
2022/05/31 11:50:20;;;;;;;9.73;3.95;;;;;;;;;;5059891;28;20397;-26
2022/05/31 11:53:05;;;;;;;6.82;3.13;;;;;;;;;;5076046;28;20071;-27
2022/05/31 11:55:34;;;;;;;9.00;3.20;;;;;;;;;;5075119;28;20059;-26
2022/05/31 11:58:19;;;;;;;4.35;2.40;;;;;;;;;;5075958;28;20119;-26
2022/05/31 12:01:04;;;;;;;7.35;2.95;;;;;;;;;;5075868;28;20048;-26
2022/05/31 12:04:06;;;;;;;4.82;2.95;;;;;;;;;;5070058;28;20041;-27
2022/05/31 12:06:42;;;;;;;5.82;2.80;;;;;;;;;;5037845;28;20124;-27
2022/05/31 12:09:14;;;;;;;6.68;2.92;;;;;;;;;;5040134;28;20057;-27
2022/05/31 12:11:47;;;;;;;4.38;2.40;;;;;;;;;;5055613;28;20092;-27
2022/05/31 12:14:13;;;;;;;;;;;;;;;;;;5055656;28;20520;-27
2022/05/31 12:16:40;;;;;;;5.15;2.95;;;;;;;;;;5037670;28;19990;-27
2022/05/31 12:19:25;;;;;;;5.95;2.60;;;;;;;;;;5056681;28;20041;-28
2022/05/31 12:21:56;;;;;;;5.45;3.08;;;;;;;;;;5055116;28;20518;-26
2022/05/31 12:24:29;;;;;;;7.50;2.97;;;;;;;;;;5055392;28;20041;-27
2022/05/31 12:26:55;;;;;;;;;;;;;;;;;;5055732;28;20128;-27
2022/05/31 12:29:30;;;;;;;8.00;3.30;;;;;;;;;;5055193;28;20082;-26
2022/05/31 12:32:15;;;;;;;7.32;2.65;;;;;;;;;;5072412;28;20130;-26
2022/05/31 12:34:41;;;;;;;6.18;2.20;;;;;;;;;;5075038;28;20113;-26
2022/05/31 12:37:10;;;;;;;5.43;2.72;;;;;;;;;;5074124;28;20051;-26
2022/05/31 12:39:37;;;;;;;7.13;2.53;;;;;;;;;;5075375;28;20048;-26
2022/05/31 12:42:15;;;;;;;5.80;2.58;;;;;;;;;;5073450;28;20048;-26
2022/05/31 12:44:46;;;;;;;7.88;2.65;;;;;;;;;;5073198;28;20056;-27
2022/05/31 12:47:14;;;;;;;10.18;3.20;;;;;;;;;;5067507;28;20083;-26
2022/05/31 12:49:52;;;;;;;6.97;3.17;;;;;;;;;;5064126;28;20371;-26
2022/05/31 12:55:25;;;;;;;4.80;2.72;;;;;;;;;;5064487;28;20048;-26
2022/05/31 13:00:48;;;;;;;5.30;2.50;;;;;;;;;;5073596;28;20055;-26
2022/05/31 13:03:32;;;;;;;5.15;3.45;;;;;;;;;;5066242;28;20052;-26
2022/05/31 13:06:02;;;;;;;5.05;2.50;;;;;;;;;;5067445;28;20050;-26
2022/05/31 13:08:43;;;;;;;10.80;3.28;;;;;;;;;;5060014;28;20032;-26
2022/05/31 13:19:41;;;;;;;8.40;3.33;;;;;;;;;;5058906;28;20405;-26
2022/05/31 13:22:07;;;;;;;5.28;4.07;;;;;;;;;;5053189;28;20052;-26
2022/05/31 13:24:36;;;;;;;7.05;2.60;;;;;;;;;;5054110;28;20062;-26
2022/05/31 13:27:05;;;;;;;4.82;2.25;;;;;;;;;;5053006;28;20048;-27
2022/05/31 13:29:31;;;;;;;3.85;1.90;;;;;;;;;;5074312;28;20041;-28
2022/05/31 13:31:58;;;;;;;4.70;2.10;;;;;;;;;;5072855;28;20557;-26
2022/05/31 13:34:26;;;;;;;5.65;2.40;;;;;;;;;;5071768;28;20049;-26
2022/05/31 13:36:53;;;;;;;4.75;2.22;;;;;;;;;;5062744;28;20091;-26
2022/05/31 13:39:19;;;;;;;5.32;2.20;;;;;;;;;;5059614;28;20135;-26
2022/05/31 13:41:52;;;;;;;4.05;2.03;;;;;;;;;;5074003;28;20063;-26
2022/05/31 13:44:23;;;;;;;5.03;2.65;;;;;;;;;;5065711;28;20099;-26
2022/05/31 13:46:50;;;;;;;3.72;2.30;;;;;;;;;;5064097;28;20390;-26
2022/05/31 13:49:16;;;;;;;7.07;2.78;;;;;;;;;;5058971;28;20474;-26
2022/05/31 13:51:51;;;;;;;5.63;2.80;;;;;;;;;;5067819;28;20045;-26
2022/05/31 13:54:19;;;;;;;4.72;2.40;;;;;;;;;;5065601;28;20158;-26
2022/05/31 13:56:47;;;;;;;6.00;3.50;;;;;;;;;;5074069;28;20402;-27
2022/05/31 13:59:14;;;;;;;7.55;2.85;;;;;;;;;;5053637;28;20044;-26
2022/05/31 14:01:45;;;;;;;6.50;2.83;;;;;;;;;;5053718;28;20052;-26
2022/05/31 14:04:15;;;;;;;7.30;4.40;;;;;;;;;;5053841;28;20056;-26
2022/05/31 14:06:42;;;;;;;10.90;5.65;;;;;;;;;;5057387;28;20057;-26
2022/05/31 14:09:12;;;;;;;7.50;4.75;;;;;;;;;;5058293;28;20041;-26
2022/05/31 14:11:57;;;;;;;8.68;4.15;;;;;;;;;;5054175;28;20402;-26
2022/05/31 14:14:35;;;;;;;6.22;4.35;;;;;;;;;;5053555;28;20510;-26
2022/05/31 14:17:02;;;;;;;6.30;4.50;;;;;;;;;;5056707;28;20053;-26
2022/05/31 14:19:44;;;;;;;8.77;5.30;;;;;;;;;;5069407;28;20056;-27
2022/05/31 14:22:25;;;;;;;8.93;4.57;;;;;;;;;;5062161;28;20052;-26
2022/05/31 14:24:53;;;;;;;8.65;4.25;;;;;;;;;;5062642;28;20056;-26
2022/05/31 14:27:21;;;;;;;9.88;4.95;;;;;;;;;;5058394;28;20068;-26
2022/05/31 14:30:03;;;;;;;7.15;5.07;;;;;;;;;;5061519;28;20517;-26
2022/05/31 14:32:30;;;;;;;7.55;4.28;;;;;;;;;;5076274;28;20056;-26
2022/05/31 14:34:56;;;;;;;7.93;4.05;;;;;;;;;;5078321;28;20040;-26
2022/05/31 14:37:51;;;;;;;9.43;3.75;;;;;;;;;;5077470;28;20063;-26
2022/05/31 14:40:26;;;;;;;6.82;4.72;;;;;;;;;;5076407;28;20065;-26
2022/05/31 14:42:57;;;;;;;5.40;4.35;;;;;;;;;;5066242;28;20044;-26
2022/05/31 14:45:27;;;;;;;7.75;4.18;;;;;;;;;;5057653;28;20384;-26
2022/05/31 14:47:53;;;;;;;12.88;5.80;;;;;;;;;;5057115;28;20045;-26
2022/05/31 14:50:31;;;;;;;10.50;5.05;;;;;;;;;;5057207;28;20087;-25
2022/05/31 14:52:59;;;;;;;7.22;5.00;;;;;;;;;;5062749;28;20045;-26
2022/05/31 14:55:30;;;;;;;11.30;6.00;;;;;;;;;;5063128;28;20128;-25
2022/05/31 15:00:41;;;;;;;8.55;5.68;;;;;;;;;;5077026;28;20139;-25
2022/05/31 15:03:29;;;;;;;7.60;5.03;;;;;;;;;;5073809;28;20119;-25
2022/05/31 15:05:56;;;;;;;8.57;5.25;;;;;;;;;;5065937;28;20158;-25
2022/05/31 15:08:33;;;;;;;9.95;5.43;;;;;;;;;;5077254;28;20044;-25
2022/05/31 15:18:56;;;;;;;8.20;4.70;;;;;;;;;;5076412;28;20083;-25
2022/05/31 15:19:26;;;;;;;7.60;4.78;;;;;;;;;;5066208;28;20056;-25
2022/05/31 15:21:52;;;;;;;9.55;5.32;;;;;;;;;;5062299;28;20040;-25
2022/05/31 15:24:31;;;;;;;8.52;4.72;;;;;;;;;;5064556;28;20393;-26
2022/05/31 15:26:58;;;;;;;9.32;5.10;;;;;;;;;;5064658;28;20052;-26
2022/05/31 15:29:24;;;;;;;6.47;4.18;;;;;;;;;;5061530;28;20041;-25
2022/05/31 15:31:50;;;;;;;9.38;4.53;;;;;;;;;;5065406;28;20384;-26
2022/05/31 15:34:16;;;;;;;10.75;4.65;;;;;;;;;;5061372;28;20517;-25
2022/05/31 15:36:43;;;;;;;8.80;4.80;;;;;;;;;;5046386;28;20557;-26
2022/05/31 15:39:10;;;;;;;8.70;4.75;;;;;;;;;;5059033;28;21014;-26
2022/05/31 15:41:38;;;;;;;12.68;4.38;;;;;;;;;;5061913;28;20060;-26
2022/05/31 15:44:04;;;;;;;9.38;3.70;;;;;;;;;;5063936;28;20041;-26